createdAt,value
2023-02-27T00:01:53.632Z,-27.3
2023-02-27T00:03:55.444Z,-27.2
2023-02-27T00:05:56.607Z,-27.2
2023-02-27T00:07:58.329Z,-27.3
2023-02-27T00:10:00.289Z,-27.5
2023-02-27T00:12:01.497Z,-27.4
2023-02-27T00:14:03.374Z,-27.3
2023-02-27T00:18:06.562Z,-27.3
2023-02-27T00:20:08.170Z,-27.2
2023-02-27T00:22:10.194Z,-27.3
2023-02-27T00:24:11.357Z,-27
2023-02-27T00:30:16.669Z,-27.3
2023-02-27T00:32:18.815Z,-27.2
2023-02-27T00:34:20.623Z,-27.3
2023-02-27T00:36:22.267Z,-27.1
2023-02-27T00:38:23.958Z,-27.3
2023-02-27T00:40:25.407Z,-27.3
2023-02-27T00:41:09.364Z,-27.5
2023-02-27T00:45:12.786Z,-27.2
2023-02-27T00:47:13.936Z,-27.2
2023-02-27T00:49:15.333Z,-27.1
2023-02-27T00:51:17.235Z,-27.3
2023-02-27T00:55:20.893Z,-27.2
2023-02-27T00:57:22.685Z,-27.3
2023-02-27T00:59:24.448Z,-27.1
2023-02-27T01:01:26.612Z,-27.2
2023-02-27T01:07:30.215Z,-27.3
2023-02-27T01:09:32.121Z,-27.1
2023-02-27T01:11:34.118Z,-27.5
2023-02-27T01:13:35.276Z,-27.4
2023-02-27T01:15:37.301Z,-27.4
2023-02-27T01:17:38.841Z,-27.3
2023-02-27T01:19:40.923Z,-27.1
2023-02-27T01:21:42.759Z,-27.2
2023-02-27T01:23:44.700Z,-27.4
2023-02-27T01:25:46.153Z,-27.3
2023-02-27T01:27:48.285Z,-27.1
2023-02-27T01:29:49.883Z,-27.3
2023-02-27T01:31:51.620Z,-27.5
2023-02-27T01:33:53.563Z,-27.3
2023-02-27T01:37:57.206Z,-27.2
2023-02-27T01:39:59.270Z,-27.3
2023-02-27T01:42:00.782Z,-27.3
2023-02-27T01:44:02.616Z,-27.1
2023-02-27T01:50:06.630Z,-27.4
2023-02-27T01:52:08.678Z,-27.1
2023-02-27T01:54:10.691Z,-27.4
2023-02-27T01:56:12.607Z,-27.1
2023-02-27T01:58:14.495Z,-27.2
2023-02-27T02:00:16.394Z,-27.1
2023-02-27T02:02:18.169Z,-27.3
2023-02-27T02:04:19.701Z,-27.1
2023-02-27T02:06:21.356Z,-27
2023-02-27T02:10:24.304Z,-27
2023-02-27T02:12:26.390Z,-27.1
2023-02-27T02:14:27.537Z,-27.3
2023-02-27T02:16:28.796Z,-27
2023-02-27T02:20:32.137Z,-27.3
2023-02-27T02:22:33.735Z,-27.1
2023-02-27T02:24:35.510Z,-27.6
2023-02-27T02:26:36.951Z,-27
2023-02-27T02:32:41.793Z,-27.4
2023-02-27T02:34:42.991Z,-27.5
2023-02-27T02:36:44.299Z,-27.3
2023-02-27T02:38:46.074Z,-26.9
2023-02-27T02:40:47.704Z,-27.3
2023-02-27T02:42:49.762Z,-27.3
2023-02-27T02:46:52.815Z,-27.1
2023-02-27T02:48:54.375Z,-27.2
2023-02-27T02:50:56.399Z,-27.1
2023-02-27T02:52:59.147Z,-27.4
2023-02-27T02:54:58.926Z,-27.2
2023-02-27T02:57:00.564Z,-27.4
2023-02-27T02:59:01.824Z,-27.1
2023-02-27T03:01:03.874Z,-27.2
2023-02-27T03:03:05.410Z,-27.4
2023-02-27T03:05:07.225Z,-27.3
2023-02-27T03:07:08.602Z,-27.3
2023-02-27T03:09:10.066Z,-27.1
2023-02-27T03:11:11.192Z,-27.2
2023-02-27T03:13:12.331Z,-27.3
2023-02-27T03:15:13.984Z,-27.3
2023-02-27T03:17:15.919Z,-27.1
2023-02-27T03:19:17.029Z,-27.2
2023-02-27T03:21:18.682Z,-27.1
2023-02-27T03:23:20.787Z,-27
2023-02-27T03:25:22.460Z,-27.1
2023-02-27T03:29:25.840Z,-27.1
2023-02-27T03:31:27.935Z,-27.4
2023-02-27T03:33:29.149Z,-27
2023-02-27T03:35:30.530Z,-27.1
2023-02-27T03:37:32.404Z,-27.4
2023-02-27T03:39:34.437Z,-27.2
2023-02-27T03:41:35.947Z,-26.9
2023-02-27T03:43:37.825Z,-27.3
2023-02-27T03:45:39.299Z,-27.3
2023-02-27T03:47:41.097Z,-27.2
2023-02-27T03:49:43.026Z,-27.3
2023-02-27T03:51:44.984Z,-27
2023-02-27T03:53:46.372Z,-27.3
2023-02-27T03:55:47.846Z,-27.2
2023-02-27T03:57:49.166Z,-27.2
2023-02-27T03:59:51.107Z,-27.2
2023-02-27T04:01:52.502Z,-27.3
2023-02-27T04:03:53.691Z,-27.3
2023-02-27T04:05:55.433Z,-27.3
2023-02-27T04:07:57.385Z,-27.1
2023-02-27T04:12:01.390Z,-27.2
2023-02-27T04:14:02.703Z,-27.4
2023-02-27T04:16:04.374Z,-27.3
2023-02-27T04:18:05.690Z,-27.2
2023-02-27T04:20:07.033Z,-27.2
2023-02-27T04:22:08.558Z,-27.4
2023-02-27T04:24:10.258Z,-27.3
2023-02-27T04:26:12.169Z,-27.2
2023-02-27T04:28:13.590Z,-27.2
2023-02-27T04:30:15.681Z,-27.3
2023-02-27T04:34:18.861Z,-27.2
2023-02-27T04:36:20.670Z,-26.9
2023-02-27T04:38:21.906Z,-27.3
2023-02-27T04:40:23.671Z,-27
2023-02-27T04:42:25.550Z,-27.4
2023-02-27T04:44:27.481Z,-27
2023-02-27T04:46:28.892Z,-27.3
2023-02-27T04:48:30.838Z,-26.9
2023-02-27T04:50:32.908Z,-27
2023-02-27T04:56:37.456Z,-27.2
2023-02-27T04:58:39.693Z,-27.3
2023-02-27T05:00:40.278Z,-27
2023-02-27T05:02:41.658Z,-27.4
2023-02-27T05:04:43.063Z,-27.5
2023-02-27T05:06:44.230Z,-27.4
2023-02-27T05:08:45.463Z,-27.1
2023-02-27T05:10:47.316Z,-27.2
2023-02-27T05:12:49.109Z,-27.2
2023-02-27T05:16:52.420Z,-27.2
2023-02-27T05:18:54.133Z,-27.3
2023-02-27T05:20:55.793Z,-27
2023-02-27T05:22:57.444Z,-27.3
2023-02-27T05:27:00.650Z,-27
2023-02-27T05:29:02.541Z,-27.3
2023-02-27T05:31:03.739Z,-27.1
2023-02-27T05:33:05.605Z,-27.2
2023-02-27T05:39:10.270Z,-27.1
2023-02-27T05:41:11.592Z,-27.3
2023-02-27T05:43:13.127Z,-27.1
2023-02-27T05:45:14.659Z,-27.3
2023-02-27T05:47:16.056Z,-27.3
2023-02-27T05:49:17.641Z,-27.1
2023-02-27T05:53:19.887Z,-27.2
2023-02-27T05:55:21.465Z,-27
2023-02-27T05:57:22.939Z,-27.1
2023-02-27T05:59:24.113Z,-27.1
2023-02-27T06:05:29.245Z,-27.5
2023-02-27T06:07:31.373Z,-27.3
2023-02-27T06:09:33.454Z,-27.3
2023-02-27T06:11:35.213Z,-27.5
2023-02-27T06:13:36.687Z,-27.1
2023-02-27T06:15:38.797Z,-27.1
2023-02-27T06:19:41.934Z,-27.3
2023-02-27T06:21:43.462Z,-27.2
2023-02-27T06:23:45.112Z,-27.2
2023-02-27T06:25:47.106Z,-27.2
2023-02-27T06:27:48.395Z,-26.9
2023-02-27T06:29:50.409Z,-27.2
2023-02-27T06:31:51.790Z,-27.5
2023-02-27T06:35:55.285Z,-27.1
2023-02-27T06:37:56.736Z,-27.1
2023-02-27T06:39:58.596Z,-27.2
2023-02-27T06:42:00.238Z,-27.1
2023-02-27T06:44:02.229Z,-27.3
2023-02-27T06:46:04.130Z,-27.5
2023-02-27T06:48:05.819Z,-27.2
2023-02-27T06:52:08.231Z,-15.8
2023-02-27T06:54:09.690Z,-12.2
2023-02-27T06:56:11.028Z,-10.4
2023-02-27T06:58:12.289Z,-9.39
2023-02-27T07:00:13.893Z,-5.7
2023-02-27T07:02:15.260Z,-3.1
2023-02-27T07:04:16.900Z,5.1
2023-02-27T07:06:18.623Z,8
2023-02-27T07:08:20.092Z,11.6
2023-02-27T07:10:21.516Z,14.4
2023-02-27T07:14:24.658Z,21.1
2023-02-27T07:16:26.386Z,23.2
2023-02-27T07:18:27.538Z,26.6
2023-02-27T07:20:28.773Z,30.6
2023-02-27T07:22:30.163Z,33.8
2023-02-27T07:24:31.749Z,37.4
2023-02-27T07:26:33.420Z,40.5
2023-02-27T07:31:20.768Z,48.4
2023-02-27T07:33:21.841Z,54.7
2023-02-27T07:35:23.399Z,56
2023-02-27T07:37:26.369Z,61.9
2023-02-27T07:39:25.687Z,67.1
2023-02-27T07:41:30.565Z,68.69
2023-02-27T07:45:31.085Z,74.5
2023-02-27T07:47:32.818Z,72.8
2023-02-27T07:49:34.290Z,71.8
2023-02-27T07:51:35.527Z,70.4
2023-02-27T07:57:39.445Z,67.4
2023-02-27T07:59:40.790Z,66.9
2023-02-27T08:01:41.849Z,66.5
2023-02-27T08:03:42.822Z,64.5
2023-02-27T08:05:44.447Z,64.19
2023-02-27T08:07:45.527Z,63.4
2023-02-27T08:09:47.149Z,61.8
2023-02-27T08:11:49.171Z,60.4
2023-02-27T08:14:03.262Z,59.6
2023-02-27T08:15:51.514Z,58.5
2023-02-27T08:17:52.853Z,57.6
2023-02-27T08:19:54.027Z,57.1
2023-02-27T08:21:55.351Z,56.7
2023-02-27T08:23:56.827Z,55.4
2023-02-27T08:25:58.534Z,54.8
2023-02-27T08:27:59.558Z,54.9
2023-02-27T08:30:00.880Z,55.5
2023-02-27T08:32:02.277Z,49.1
2023-02-27T08:34:10.079Z,45.8
2023-02-27T08:36:04.528Z,49.2
2023-02-27T08:38:05.865Z,48.4
2023-02-27T08:40:07.359Z,47.7
2023-02-27T08:42:09.213Z,39.4
2023-02-27T08:44:10.480Z,38.8
2023-02-27T08:46:11.553Z,37.5
2023-02-27T08:48:13.311Z,36
2023-02-27T08:50:14.832Z,19.7
2023-02-27T08:52:15.807Z,18.4
2023-02-27T08:54:17.772Z,33.5
2023-02-27T08:56:19.192Z,31.6
2023-02-27T08:58:20.193Z,30.3
2023-02-27T09:00:21.430Z,30.4
2023-02-27T09:02:22.905Z,14.4
2023-02-27T09:04:24.368Z,13.9
2023-02-27T09:06:26.409Z,27.1
2023-02-27T09:12:29.633Z,22.5
2023-02-27T09:14:31.296Z,19.7
2023-02-27T09:16:32.900Z,19.79
2023-02-27T09:18:34.356Z,19.1
2023-02-27T09:20:36.114Z,17.9
2023-02-27T09:22:37.621Z,17.9
2023-02-27T09:24:39.489Z,17.79
2023-02-27T09:26:45.817Z,17.4
2023-02-27T09:28:42.314Z,15.4
2023-02-27T09:32:45.136Z,13.5
2023-02-27T09:34:46.301Z,13.9
2023-02-27T09:36:48.083Z,11.3
2023-02-27T09:38:49.602Z,10.8
2023-02-27T09:42:52.311Z,1.4
2023-02-27T09:44:53.500Z,10.5
2023-02-27T09:46:55.024Z,9.2
2023-02-27T09:48:56.227Z,7.7
2023-02-27T09:55:00.988Z,6.1
2023-02-27T09:57:02.177Z,-27.4
2023-02-27T09:59:03.324Z,-27.3
2023-02-27T10:01:04.899Z,-27.4
2023-02-27T10:03:06.607Z,-27.1
2023-02-27T10:05:07.731Z,-27.4
2023-02-27T10:09:11.491Z,-27.3
2023-02-27T10:11:12.793Z,-27.5
2023-02-27T10:13:14.595Z,-27.4
2023-02-27T10:15:16.374Z,-27.4
2023-02-27T10:19:19.514Z,-27.5
2023-02-27T10:21:20.671Z,-27.6
2023-02-27T10:25:30.604Z,-27.3
2023-02-27T10:27:25.053Z,-27.3
2023-02-27T10:29:26.755Z,-27.4
2023-02-27T10:31:28.795Z,-27.7
2023-02-27T10:35:31.257Z,-27.2
2023-02-27T10:37:32.795Z,-27.7
2023-02-27T10:39:35.004Z,-27.4
2023-02-27T10:41:37.205Z,-27.3
2023-02-27T10:43:39.190Z,-27.5
2023-02-27T10:45:41.450Z,-27.3
2023-02-27T10:47:43.128Z,-27.3
2023-02-27T10:49:46.074Z,-27.5
2023-02-27T10:51:48.065Z,-27.4
2023-02-27T10:53:49.146Z,-27.4
2023-02-27T10:57:52.169Z,-52.3
2023-02-27T10:59:53.187Z,-27.6
2023-02-27T11:01:54.482Z,-27.6
2023-02-27T11:03:56.275Z,-27.3
2023-02-27T11:07:59.014Z,-27.4
2023-02-27T11:10:00.982Z,-27.4
2023-02-27T11:12:02.883Z,-27.3
2023-02-27T11:14:04.721Z,-27.7
2023-02-27T11:20:08.397Z,-27.2
2023-02-27T11:22:09.623Z,-27.6
2023-02-27T11:24:11.321Z,40.9
2023-02-27T11:26:12.891Z,36.2
2023-02-27T11:28:14.860Z,33.4
2023-02-27T11:30:16.374Z,30.6
2023-02-27T11:34:18.622Z,30.8
2023-02-27T11:36:20.279Z,29.2
2023-02-27T11:38:21.256Z,24.4
2023-02-27T11:40:22.324Z,24.1
2023-02-27T11:46:43.515Z,22.3
2023-02-27T11:50:30.629Z,17
2023-02-27T11:52:31.950Z,18.79
2023-02-27T11:54:33.542Z,16.2
2023-02-27T11:56:36.199Z,15.6
2023-02-27T12:00:39.069Z,11.5
2023-02-27T12:02:40.456Z,12.6
2023-02-27T12:04:41.617Z,10.1
2023-02-27T12:06:42.637Z,7.6
2023-02-27T12:10:45.672Z,6.9
2023-02-27T12:12:47.010Z,6
2023-02-27T12:14:48.142Z,6.4
2023-02-27T12:16:49.678Z,-27.2
2023-02-27T12:18:50.803Z,-27.2
2023-02-27T12:20:52.629Z,-27.6
2023-02-27T12:22:54.320Z,-27.6
2023-02-27T12:24:56.059Z,-27.5
2023-02-27T12:28:58.578Z,-27.3
2023-02-27T12:31:00.027Z,-27.4
2023-02-27T12:33:01.461Z,-27.5
2023-02-27T12:35:03.027Z,-27.6
2023-02-27T12:37:04.186Z,-27.6
2023-02-27T12:39:05.780Z,-27.4
2023-02-27T12:41:08.069Z,-27.4
2023-02-27T12:43:10.848Z,-27.4
2023-02-27T12:45:11.154Z,-27.4
2023-02-27T12:47:12.266Z,-27.5
2023-02-27T12:49:14.002Z,-27.4
2023-02-27T12:51:15.695Z,-27.6
2023-02-27T12:53:17.617Z,-27.5
2023-02-27T12:55:18.779Z,-27.3
2023-02-27T12:57:19.795Z,-27.3
2023-02-27T12:59:21.769Z,-27.4
2023-02-27T13:01:22.953Z,-27.3
2023-02-27T13:03:24.016Z,-27.5
2023-02-27T13:05:25.702Z,-27.5
2023-02-27T13:07:27.117Z,-27.4
2023-02-27T13:09:28.460Z,-27.4
2023-02-27T13:11:30.729Z,-27.5
2023-02-27T13:15:33.112Z,-27.4
2023-02-27T13:17:34.590Z,-27.3
2023-02-27T13:19:35.644Z,-27.4
2023-02-27T13:21:37.385Z,-27.5
2023-02-27T13:25:41.016Z,-27.2
2023-02-27T13:27:42.268Z,-27.5
2023-02-27T13:29:44.134Z,-27.3
2023-02-27T13:31:45.827Z,-27.2
2023-02-27T13:33:47.224Z,-27.3
2023-02-27T13:35:48.350Z,-27.3
2023-02-27T13:37:49.474Z,-27.4
2023-02-27T13:39:50.606Z,-27.5
2023-02-27T13:41:52.468Z,-27.4
2023-02-27T13:43:54.409Z,-27.6
2023-02-27T13:45:56.196Z,-27.4
2023-02-27T13:47:57.656Z,-27.3
2023-02-27T13:49:59.058Z,-27.3
2023-02-27T13:52:00.459Z,3.5
2023-02-27T13:54:01.579Z,39.09
2023-02-27T13:58:04.685Z,34.3
2023-02-27T14:00:06.041Z,32.2
2023-02-27T14:02:07.155Z,28.2
2023-02-27T14:04:08.464Z,30.8
2023-02-27T14:10:13.629Z,20.7
2023-02-27T14:12:15.276Z,21.9
2023-02-27T14:15:00.778Z,28.6
2023-02-27T14:17:02.547Z,24.3
2023-02-27T14:19:04.440Z,23.4
2023-02-27T14:21:05.895Z,20.5
2023-02-27T14:23:07.784Z,20.4
2023-02-27T14:25:09.399Z,15.7
2023-02-27T14:27:10.659Z,14.1
2023-02-27T14:29:12.289Z,12.8
2023-02-27T14:31:14.859Z,12.5
2023-02-27T14:35:17.795Z,10.2
2023-02-27T14:37:19.697Z,9.6
2023-02-27T14:39:20.978Z,-27.3
2023-02-27T14:41:22.859Z,-27.4
2023-02-27T14:47:26.480Z,-27.3
2023-02-27T14:49:28.105Z,-27.4
2023-02-27T14:51:30.191Z,-27.3
2023-02-27T14:53:30.969Z,-27.4
2023-02-27T14:55:32.057Z,-27.4
2023-02-27T14:57:33.534Z,-52.7
2023-02-27T15:01:36.267Z,-27.2
2023-02-27T15:03:37.510Z,-27.4
2023-02-27T15:05:38.661Z,-27.7
2023-02-27T15:07:40.235Z,-27.4
2023-02-27T15:09:41.480Z,-27.4
2023-02-27T15:11:48.787Z,-27.1
2023-02-27T15:13:44.644Z,-27.4
2023-02-27T15:15:45.695Z,-27.4
2023-02-27T15:17:47.239Z,-27.5
2023-02-27T15:19:48.828Z,-27.5
2023-02-27T15:23:51.766Z,-27.5
2023-02-27T15:25:53.451Z,-27.5
2023-02-27T15:27:55.320Z,-27.5
2023-02-27T15:29:56.905Z,-27.6
2023-02-27T15:34:00.734Z,-27.3
2023-02-27T15:36:02.642Z,-27.5
2023-02-27T15:38:04.007Z,-27.1
2023-02-27T15:40:05.896Z,-27.5
2023-02-27T15:46:10.401Z,-27.3
2023-02-27T15:48:11.483Z,-27.1
2023-02-27T15:50:13.425Z,-27.3
2023-02-27T15:52:15.057Z,-27.6
2023-02-27T15:54:16.347Z,-27.2
2023-02-27T15:56:18.191Z,-27.2
2023-02-27T16:00:20.558Z,-27.5
2023-02-27T16:02:22.386Z,-27.5
2023-02-27T16:04:23.958Z,-27.3
2023-02-27T16:06:25.453Z,-27.4
2023-02-27T16:10:28.721Z,-27.5
2023-02-27T16:12:29.884Z,-27.5
2023-02-27T16:14:31.139Z,-27.3
2023-02-27T16:16:33.115Z,-27.6
2023-02-27T16:18:34.150Z,-27.6
2023-02-27T16:20:35.263Z,0
2023-02-27T16:22:36.712Z,-4.8
2023-02-27T16:26:39.774Z,-1.4
2023-02-27T16:28:41.773Z,-23
2023-02-27T16:30:43.752Z,-27.4
2023-02-27T16:32:44.851Z,-27.4
2023-02-27T16:36:48.183Z,-27.4
2023-02-27T16:38:50.102Z,-27.3
2023-02-27T16:42:52.777Z,-27.5
2023-02-27T16:44:54.625Z,-27.6
2023-02-27T16:46:56.495Z,-27.3
2023-02-27T16:49:00.633Z,-27.5
2023-02-27T16:55:02.793Z,-27.6
2023-02-27T16:57:04.323Z,-27.3
2023-02-27T16:59:05.650Z,-27.6
2023-02-27T17:01:06.969Z,-27.3
2023-02-27T17:03:07.945Z,-27.4
2023-02-27T17:05:09.253Z,-27.3
2023-02-27T17:07:10.483Z,-27.4
2023-02-27T17:09:12.136Z,-27.5
2023-02-27T17:11:13.286Z,-27.4
2023-02-27T17:13:15.092Z,-27.7
2023-02-27T17:15:16.627Z,-27.5
2023-02-27T17:17:18.086Z,-27.5
2023-02-27T17:19:19.294Z,-27.4
2023-02-27T17:25:24.002Z,-27.4
2023-02-27T17:27:25.727Z,-27.3
2023-02-27T17:29:27.100Z,-27.1
2023-02-27T17:31:28.902Z,-27.7
2023-02-27T17:37:34.201Z,-27.4
2023-02-27T17:39:35.966Z,-27.3
2023-02-27T17:41:37.518Z,-27.5
2023-02-27T17:43:38.971Z,-27.5
2023-02-27T17:45:40.456Z,-27.3
2023-02-27T17:47:41.698Z,-27.4
2023-02-27T17:49:43.064Z,-27.4
2023-02-27T17:51:45.120Z,-27.5
2023-02-27T17:53:46.897Z,-27.4
2023-02-27T17:55:48.519Z,-27.2
2023-02-27T17:57:50.310Z,-27.4
2023-02-27T18:01:55.466Z,-27.6
2023-02-27T18:03:55.192Z,-27.5
2023-02-27T18:05:57.196Z,-27.5
2023-02-27T18:07:58.893Z,-27.3
2023-02-27T18:10:00.238Z,-27.6
2023-02-27T18:12:01.818Z,-27.4
2023-02-27T18:14:03.700Z,-27.6
2023-02-27T18:18:11.675Z,-27.4
2023-02-27T18:20:21.139Z,-27.3
2023-02-27T18:24:15.968Z,-27.5
2023-02-27T18:26:20.276Z,-27.5
2023-02-27T18:28:15.723Z,-27.6
2023-02-27T18:30:18.227Z,-27.6
2023-02-27T18:32:17.400Z,-27.6
2023-02-27T18:34:19.703Z,-27.5
2023-02-27T18:36:26.511Z,-27.5
2023-02-27T18:38:21.898Z,-27.2
2023-02-27T18:40:23.387Z,-27.3
2023-02-27T18:44:39.639Z,-27.7
2023-02-27T18:46:28.727Z,-27.4
2023-02-27T18:50:43.256Z,-27.4
2023-02-27T18:52:35.656Z,-27.4
2023-02-27T18:56:36.985Z,-27.6
2023-02-27T18:58:45.910Z,-27.6
2023-02-27T19:02:41.940Z,-27.2
2023-02-27T19:06:51.605Z,-27.4
2023-02-27T19:08:49.841Z,-27.6
2023-02-27T19:12:50.851Z,-27.7
2023-02-27T19:14:53.401Z,-27.3
2023-02-27T19:17:03.062Z,-27.5
2023-02-27T19:18:55.742Z,-27.4
2023-02-27T19:20:57.790Z,-27.2
2023-02-27T19:22:59.423Z,-27.6
2023-02-27T19:25:18.029Z,-27.4
2023-02-27T19:27:14.695Z,-27.5
2023-02-27T19:29:05.723Z,-27.8
2023-02-27T19:31:14.308Z,-27.6
2023-02-27T19:33:07.976Z,-27.4
2023-02-27T19:35:09.501Z,-27.4
2023-02-27T19:39:12.434Z,-27.4
2023-02-27T19:41:34.985Z,-27.3
2023-02-27T19:45:22.938Z,-27.5
2023-02-27T19:49:19.587Z,-27.4
2023-02-27T19:51:21.824Z,-27.4
2023-02-27T19:53:24.267Z,-27.4
2023-02-27T19:55:24.711Z,-27.6
2023-02-27T20:01:28.895Z,-27.5
2023-02-27T20:03:30.218Z,-27.7
2023-02-27T20:05:32.081Z,-27.2
2023-02-27T20:07:33.447Z,-27.5
2023-02-27T20:09:35.100Z,-27.7
2023-02-27T20:11:36.733Z,-27.5
2023-02-27T20:13:38.667Z,-27.2
2023-02-27T20:15:39.811Z,-27.6
2023-02-27T20:17:41.400Z,-27.5
2023-02-27T20:19:42.657Z,-27.5
2023-02-27T20:21:43.855Z,-27.7
2023-02-27T20:23:45.234Z,-27.5
2023-02-27T20:25:47.196Z,-27.3
2023-02-27T20:27:48.565Z,-27.7
2023-02-27T20:29:49.903Z,-27.6
2023-02-27T20:31:52.031Z,-27.5
2023-02-27T20:33:53.186Z,-27.9
2023-02-27T20:35:55.739Z,-27.9
2023-02-27T20:37:56.437Z,-27.6
2023-02-27T20:39:58.246Z,-27.9
2023-02-27T20:44:00.885Z,-27.7
2023-02-27T20:46:02.373Z,-27.6
2023-02-27T20:48:03.334Z,-27.8
2023-02-27T20:50:04.659Z,-27.6
2023-02-27T20:52:06.634Z,-27.7
2023-02-27T20:54:08.231Z,-27.6
2023-02-27T20:58:55.307Z,-27.2
2023-02-27T21:00:57.355Z,-27.7
2023-02-27T21:02:59.020Z,-27.3
2023-02-27T21:05:01.001Z,-27.4
2023-02-27T21:07:02.868Z,-27.8
2023-02-27T21:09:04.686Z,-27.9
2023-02-27T21:11:06.489Z,-28
2023-02-27T21:15:10.407Z,-27.4
2023-02-27T21:17:12.246Z,-27.7
2023-02-27T21:19:13.793Z,-28
2023-02-27T21:21:15.195Z,-27.8
2023-02-27T21:23:16.638Z,-27.5
2023-02-27T21:25:17.976Z,-28.1
2023-02-27T21:27:19.685Z,-27.9
2023-02-27T21:29:21.134Z,-27.8
2023-02-27T21:31:22.506Z,-27.7
2023-02-27T21:37:27.661Z,-27.8
2023-02-27T21:39:28.958Z,-27.6
2023-02-27T21:41:31.047Z,-27.7
2023-02-27T21:43:32.805Z,-27.8
2023-02-27T21:45:34.615Z,-27.5
2023-02-27T21:47:35.828Z,-27.8
2023-02-27T21:49:37.174Z,-27.7
2023-02-27T21:51:41.009Z,-27.7
2023-02-27T21:53:40.383Z,-27.7
2023-02-27T21:57:43.266Z,-27.6
2023-02-27T21:59:45.197Z,-27.7
2023-02-27T22:01:46.942Z,-27.5
2023-02-27T22:03:48.481Z,-27.5
2023-02-27T22:07:52.157Z,-27.4
2023-02-27T22:09:53.764Z,-27.8
2023-02-27T22:11:54.825Z,-27.6
2023-02-27T22:13:56.904Z,-27.8
2023-02-27T22:20:01.588Z,-27.7
2023-02-27T22:22:02.840Z,-27.8
2023-02-27T22:24:04.597Z,-27.6
2023-02-27T22:26:06.017Z,-27.6
2023-02-27T22:28:07.161Z,-27.8
2023-02-27T22:30:08.532Z,-27.7
2023-02-27T22:34:12.201Z,-27.5
2023-02-27T22:36:13.659Z,-27.7
2023-02-27T22:40:16.560Z,-27.7
2023-02-27T22:42:17.677Z,-27.7
2023-02-27T22:44:19.656Z,-27.4
2023-02-27T22:46:20.931Z,-27.7
2023-02-27T22:50:24.414Z,-27.5
2023-02-27T22:52:25.737Z,-27.7
2023-02-27T22:54:27.713Z,-27.7
2023-02-27T22:56:29.613Z,-27.9
2023-02-27T23:02:34.956Z,-27.7
2023-02-27T23:04:36.117Z,-27.7
2023-02-27T23:06:37.724Z,-27.7
2023-02-27T23:08:39.535Z,-27.7
2023-02-27T23:10:41.286Z,-27.4
2023-02-27T23:12:42.566Z,-27.5
2023-02-27T23:16:45.196Z,-27.7
2023-02-27T23:18:46.543Z,-27.5
2023-02-27T23:20:48.047Z,-27.4
2023-02-27T23:22:49.281Z,-27.4
2023-02-27T23:26:53.109Z,-27.5
2023-02-27T23:28:55.160Z,-27.6
2023-02-27T23:32:57.861Z,-27.4
2023-02-27T23:34:59.724Z,-27.4
2023-02-27T23:37:01.222Z,-27.2
2023-02-27T23:39:03.143Z,-27.6
2023-02-27T23:45:08.844Z,-27.4
2023-02-27T23:47:10.213Z,-27.3
2023-02-27T23:49:11.346Z,-27.3
2023-02-27T23:51:13.117Z,-27.7
2023-02-27T23:53:14.491Z,-27.3
2023-02-27T23:55:15.723Z,-27.4
2023-02-27T23:59:19.395Z,-27.3
